Time;durP1;ratioP1;P1;durP2;ratioP2;P2;SDS_P1;SDS_P2;PMS_P1;PMS_P2;Temp;Humidity;BMP_temperature;BMP_pressure;BME280_temperature;BME280_humidity;BME280_pressure;Samples;Min_cycle;Max_cycle;Signal;HPM_P1;HPM_P2
2023/10/17 00:02:03;;;;;;;5.45;2.13;;;7.50;99.90;;;;;;5057860;28;20153;-73
2023/10/17 00:04:32;;;;;;;5.05;1.95;;;7.60;99.90;;;;;;5058519;28;20583;-73
2023/10/17 00:06:58;;;;;;;4.60;2.28;;;7.60;99.90;;;;;;5058689;28;20060;-73
2023/10/17 00:09:25;;;;;;;5.20;2.15;;;7.50;99.90;;;;;;5072745;28;20123;-73
2023/10/17 00:14:23;;;;;;;3.53;1.67;;;7.40;99.90;;;;;;5074120;28;20523;-73
2023/10/17 00:16:55;;;;;;;5.95;1.90;;;7.40;99.90;;;;;;5091051;28;20080;-73
2023/10/17 00:19:31;;;;;;;4.55;2.15;;;7.40;99.90;;;;;;5072342;28;20117;-73
2023/10/17 00:22:02;;;;;;;3.40;1.60;;;7.30;99.90;;;;;;5074037;28;20497;-73
2023/10/17 00:24:28;;;;;;;4.78;2.20;;;7.30;99.90;;;;;;5073336;28;20041;-73
2023/10/17 00:26:53;;;;;;;5.40;2.08;;;7.30;99.90;;;;;;5058299;28;20036;-73
2023/10/17 00:29:19;;;;;;;5.93;2.22;;;7.20;99.90;;;;;;5073494;28;20078;-73
2023/10/17 00:31:46;;;;;;;4.45;2.08;;;7.10;99.90;;;;;;5073605;28;20040;-73
2023/10/17 00:34:15;;;;;;;3.88;1.85;;;7.10;99.90;;;;;;5056420;28;20041;-73
2023/10/17 00:36:48;;;;;;;6.15;2.28;;;7.10;99.90;;;;;;5046066;28;20129;-73
2023/10/17 00:39:22;;;;;;;;;;;7.00;99.90;;;;;;5058174;28;20489;-73
2023/10/17 00:42:09;;;;;;;3.80;1.73;;;7.00;99.90;;;;;;5077596;28;19927;-73
2023/10/17 00:44:39;;;;;;;5.57;1.85;;;6.90;99.90;;;;;;5054468;28;20040;-74
2023/10/17 00:47:18;;;;;;;4.07;1.58;;;6.90;99.90;;;;;;5053819;28;20043;-73
2023/10/17 00:49:44;;;;;;;4.72;1.90;;;6.90;99.90;;;;;;5057555;28;20043;-73
2023/10/17 00:52:20;;;;;;;3.78;1.70;;;6.90;99.90;;;;;;5080738;28;20401;-73
2023/10/17 00:54:47;;;;;;;2.55;1.42;;;6.90;99.90;;;;;;5071646;28;20041;-73
2023/10/17 00:57:17;;;;;;;3.55;1.52;;;6.90;99.90;;;;;;5074078;28;20053;-73
2023/10/17 00:59:50;;;;;;;6.82;1.77;;;6.90;99.90;;;;;;5068005;28;20051;-73
2023/10/17 01:02:21;;;;;;;3.38;1.70;;;7.00;99.90;;;;;;5069988;28;20043;-73
2023/10/17 01:04:46;;;;;;;3.88;1.90;;;6.90;99.90;;;;;;5072936;28;20126;-73
2023/10/17 01:07:16;;;;;;;4.10;1.60;;;6.90;99.90;;;;;;5038735;28;20130;-73
2023/10/17 01:09:48;;;;;;;4.10;1.42;;;6.90;99.90;;;;;;5058676;28;20052;-73
2023/10/17 01:12:13;;;;;;;3.83;1.60;;;6.90;99.90;;;;;;5069433;28;20028;-73
2023/10/17 01:14:40;;;;;;;3.60;1.52;;;7.00;99.90;;;;;;5055911;28;20036;-73
2023/10/17 01:17:07;;;;;;;4.82;2.08;;;7.00;99.90;;;;;;5055916;28;20046;-73
2023/10/17 01:19:33;;;;;;;3.10;1.60;;;7.00;99.90;;;;;;5086476;28;20094;-73
2023/10/17 01:22:00;;;;;;;3.78;1.52;;;7.00;99.90;;;;;;5086494;28;20060;-73
2023/10/17 01:24:28;;;;;;;3.03;1.58;;;7.00;99.90;;;;;;5070437;28;20033;-73
2023/10/17 01:26:55;;;;;;;3.67;1.70;;;7.00;99.90;;;;;;5056117;28;20036;-73
2023/10/17 01:29:21;;;;;;;2.80;1.50;;;7.00;99.90;;;;;;5070864;28;20044;-73
2023/10/17 01:31:48;;;;;;;3.38;1.40;;;7.10;99.90;;;;;;5072650;28;20041;-73
2023/10/17 01:34:14;;;;;;;2.75;1.27;;;7.10;99.90;;;;;;5052861;28;20048;-73
2023/10/17 01:36:42;;;;;;;2.55;1.13;;;7.10;99.90;;;;;;5055873;28;20115;-73
2023/10/17 01:39:11;;;;;;;1.55;1.10;;;7.10;99.90;;;;;;5046073;28;20029;-73
2023/10/17 01:41:47;;;;;;;2.45;1.23;;;7.10;99.90;;;;;;5056897;28;20054;-73
2023/10/17 01:44:12;;;;;;;3.40;1.42;;;7.00;99.90;;;;;;5070608;28;20503;-73
2023/10/17 01:46:38;;;;;;;6.50;1.80;;;6.90;99.90;;;;;;5086768;28;20033;-72
2023/10/17 01:49:13;;;;;;;2.35;1.30;;;6.90;99.90;;;;;;5070335;28;20032;-73
2023/10/17 01:51:44;;;;;;;2.42;1.42;;;6.90;99.90;;;;;;5072296;28;20040;-73
2023/10/17 01:54:14;;;;;;;3.38;1.60;;;7.00;99.90;;;;;;5053924;28;20040;-73
2023/10/17 01:56:40;;;;;;;3.35;1.40;;;7.00;99.90;;;;;;5069421;28;20053;-73
2023/10/17 01:59:27;;;;;;;3.40;1.40;;;7.00;99.90;;;;;;5067102;28;20137;-73
2023/10/17 02:01:56;;;;;;;3.17;1.65;;;6.90;99.90;;;;;;5060480;28;20041;-73
2023/10/17 02:04:24;;;;;;;2.97;1.50;;;6.90;99.90;;;;;;5054965;28;20036;-73
2023/10/17 02:06:50;;;;;;;3.42;1.45;;;6.90;99.90;;;;;;5054989;28;20570;-73
2023/10/17 02:11:54;;;;;;;2.60;1.40;;;6.90;99.90;;;;;;5068541;28;20084;-73
2023/10/17 02:14:21;;;;;;;4.20;1.48;;;6.90;99.90;;;;;;5054478;28;20401;-72
2023/10/17 02:16:48;;;;;;;4.35;1.50;;;6.90;99.90;;;;;;5053397;28;20036;-73
2023/10/17 02:19:14;;;;;;;3.40;1.33;;;6.90;99.90;;;;;;5070286;28;20044;-72
2023/10/17 02:21:40;;;;;;;2.53;1.50;;;6.90;99.90;;;;;;5084654;28;20437;-73
2023/10/17 02:24:09;;;;;;;4.82;1.40;;;6.90;99.90;;;;;;5069131;28;20400;-73
2023/10/17 02:26:42;;;;;;;6.45;1.63;;;6.80;99.90;;;;;;5061090;28;20033;-73
2023/10/17 02:29:11;;;;;;;4.85;1.48;;;6.70;99.90;;;;;;5052524;28;20044;-73
2023/10/17 02:31:40;;;;;;;2.22;1.35;;;6.70;99.90;;;;;;5051241;28;20036;-72
2023/10/17 02:34:09;;;;;;;2.47;1.30;;;6.70;99.90;;;;;;5053639;28;20455;-72
2023/10/17 02:36:35;;;;;;;2.95;1.30;;;6.70;99.90;;;;;;5056620;28;20040;-72
2023/10/17 02:39:00;;;;;;;2.67;1.25;;;6.80;99.90;;;;;;5070333;28;20037;-73
2023/10/17 02:41:26;;;;;;;5.20;1.40;;;6.80;99.90;;;;;;5069969;28;20400;-73
2023/10/17 02:43:54;;;;;;;2.83;1.40;;;6.80;99.90;;;;;;5052835;28;20068;-73
2023/10/17 02:46:27;;;;;;;2.65;1.02;;;6.70;99.90;;;;;;5053950;28;20036;-72
2023/10/17 02:48:57;;;;;;;1.98;1.13;;;6.70;99.90;;;;;;5070008;28;20508;-72
2023/10/17 02:53:53;;;;;;;2.55;1.20;;;6.70;99.90;;;;;;5069447;28;20063;-73
2023/10/17 02:56:20;;;;;;;2.55;0.85;;;6.70;99.90;;;;;;5054408;28;20118;-73
2023/10/17 02:59:04;;;;;;;1.92;0.98;;;6.60;99.90;;;;;;5052674;28;20135;-73
2023/10/17 03:01:31;;;;;;;1.52;0.70;;;6.70;99.90;;;;;;5071867;28;20120;-73
2023/10/17 03:04:07;;;;;;;0.73;0.70;;;6.70;99.90;;;;;;5078425;28;20043;-73
2023/10/17 03:06:40;;;;;;;1.02;0.80;;;6.60;99.90;;;;;;5054713;28;20094;-73
2023/10/17 03:09:16;;;;;;;;;;;6.50;99.90;;;;;;5059536;28;20032;-73
2023/10/17 03:11:49;;;;;;;2.10;1.10;;;6.40;99.90;;;;;;5069298;28;19995;-73
2023/10/17 03:14:22;;;;;;;2.40;1.10;;;6.40;99.90;;;;;;5055180;28;20040;-73
2023/10/17 03:16:54;;;;;;;1.63;1.13;;;6.40;99.90;;;;;;5053269;28;20048;-73
2023/10/17 03:19:25;;;;;;;;;;;6.40;99.90;;;;;;5055515;28;20051;-72
2023/10/17 03:21:53;;;;;;;1.52;1.00;;;6.40;99.90;;;;;;5056973;28;19916;-72
2023/10/17 03:24:19;;;;;;;1.33;1.00;;;6.40;99.90;;;;;;5085453;28;20037;-73
2023/10/17 03:26:54;;;;;;;4.68;1.20;;;6.30;99.90;;;;;;5057822;28;20480;-72
2023/10/17 03:29:23;;;;;;;1.20;0.90;;;6.30;99.90;;;;;;5071736;28;20045;-72
2023/10/17 03:31:53;;;;;;;2.40;1.13;;;6.30;99.90;;;;;;5056207;28;20044;-72
2023/10/17 03:34:29;;;;;;;2.78;1.40;;;6.30;99.90;;;;;;5059020;28;20135;-73
2023/10/17 03:36:55;;;;;;;2.88;1.17;;;6.30;99.90;;;;;;5071868;28;20036;-73
2023/10/17 03:39:28;;;;;;;4.82;1.35;;;6.30;99.90;;;;;;5057658;28;20048;-72
2023/10/17 03:41:56;;;;;;;;;;;6.30;99.90;;;;;;5071789;28;20508;-73
2023/10/17 03:44:30;;;;;;;2.63;1.20;;;6.20;99.90;;;;;;5069063;28;19920;-72
2023/10/17 03:46:59;;;;;;;2.03;1.00;;;6.20;99.90;;;;;;5053840;28;20082;-72
2023/10/17 03:49:25;;;;;;;2.78;1.40;;;6.10;99.90;;;;;;5055737;28;20041;-72
2023/10/17 03:51:52;;;;;;;3.08;1.30;;;6.10;99.90;;;;;;5070861;28;20053;-72
2023/10/17 03:54:22;;;;;;;4.32;1.40;;;6.10;99.90;;;;;;5059970;28;20049;-72
2023/10/17 03:56:55;;;;;;;2.42;1.10;;;6.00;99.90;;;;;;5074264;28;20053;-72
2023/10/17 03:59:41;;;;;;;2.50;1.20;;;6.00;99.90;;;;;;5072367;28;20048;-72
2023/10/17 04:02:17;;;;;;;3.10;1.23;;;6.00;99.90;;;;;;5057121;28;20196;-72
2023/10/17 04:04:55;;;;;;;4.35;1.45;;;6.10;99.90;;;;;;5071643;28;20558;-72
2023/10/17 04:07:23;;;;;;;3.05;1.30;;;6.00;99.90;;;;;;5057110;28;20075;-72
2023/10/17 04:12:48;;;;;;;2.88;1.23;;;6.10;99.90;;;;;;5072756;28;20523;-72
2023/10/17 04:15:15;;;;;;;2.05;0.90;;;6.10;99.90;;;;;;5070582;28;20043;-72
2023/10/17 04:17:41;;;;;;;3.30;1.10;;;6.20;99.90;;;;;;5062136;28;20037;-72
2023/10/17 04:20:12;;;;;;;2.83;1.10;;;6.20;99.90;;;;;;5073694;28;20082;-72
2023/10/17 04:22:44;;;;;;;2.58;1.02;;;6.20;99.90;;;;;;5082438;28;20079;-72
2023/10/17 04:27:54;;;;;;;2.45;1.10;;;6.20;99.90;;;;;;5073878;28;20111;-72
2023/10/17 04:30:29;;;;;;;2.83;1.20;;;6.20;99.90;;;;;;5058834;28;20070;-72
2023/10/17 04:33:05;;;;;;;2.42;1.98;;;6.20;99.90;;;;;;5074631;28;20098;-73
2023/10/17 04:35:35;;;;;;;4.32;1.58;;;6.10;99.90;;;;;;5055531;28;20127;-72
2023/10/17 04:38:16;;;;;;;2.67;1.60;;;6.20;99.90;;;;;;5074489;28;20511;-72
2023/10/17 04:40:50;;;;;;;1.65;1.10;;;6.30;99.90;;;;;;5073483;28;20044;-72
2023/10/17 04:46:01;;;;;;;2.45;1.10;;;6.30;99.90;;;;;;5073588;28;20507;-72
2023/10/17 04:48:35;;;;;;;2.40;1.15;;;6.30;99.90;;;;;;5057776;28;20083;-72
2023/10/17 04:53:48;;;;;;;2.03;1.00;;;6.30;99.90;;;;;;5073347;28;20049;-72
2023/10/17 04:56:21;;;;;;;1.42;1.00;;;6.40;99.90;;;;;;5068167;28;20514;-73
2023/10/17 05:03:55;;;;;;;2.90;1.50;;;6.40;99.90;;;;;;5075650;28;20041;-72
2023/10/17 05:06:51;;;;;;;4.80;1.77;;;6.40;99.90;;;;;;5073967;28;20028;-72
2023/10/17 06:17:28;;;;;;;6.25;2.50;;;6.80;99.90;;;;;;5068400;28;20489;-72
2023/10/17 06:19:54;;;;;;;7.07;2.75;;;6.80;99.90;;;;;;5070929;28;20039;-72
2023/10/17 06:30:27;;;;;;;6.82;3.20;;;6.80;99.90;;;;;;5063893;28;20041;-72
2023/10/17 06:35:46;;;;;;;11.05;3.92;;;6.90;99.90;;;;;;5067290;28;20098;-72
2023/10/17 06:38:16;;;;;;;6.28;3.28;;;6.90;99.90;;;;;;5069217;28;20485;-72
2023/10/17 06:40:45;;;;;;;7.57;3.28;;;7.00;99.90;;;;;;5069925;28;20079;-73
2023/10/17 06:43:27;;;;;;;8.07;4.43;;;7.00;99.90;;;;;;5069480;28;20047;-72
2023/10/17 06:45:55;;;;;;;;;;;7.00;99.90;;;;;;5061522;28;20033;-72
2023/10/17 06:48:31;;;;;;;8.20;3.35;;;7.10;99.90;;;;;;5042387;28;19963;-73
2023/10/17 06:51:29;;;;;;;6.50;3.70;;;7.10;99.90;;;;;;5065169;28;20098;-72
2023/10/17 06:53:48;;;;;;;6.93;3.85;;;7.10;99.90;;;;;;5052304;28;20059;-72
2023/10/17 06:56:17;;;;;;;8.30;3.90;;;7.10;99.90;;;;;;5053511;28;20048;-72
2023/10/17 06:58:44;;;;;;;7.50;4.40;;;7.20;99.90;;;;;;5048267;28;20045;-72
2023/10/17 07:01:25;;;;;;;11.05;4.70;;;7.20;99.90;;;;;;5054078;28;20091;-72
2023/10/17 07:03:54;;;;;;;8.20;4.95;;;7.20;99.90;;;;;;5063869;28;20040;-72
2023/10/17 07:06:24;;;;;;;9.43;5.35;;;7.20;99.90;;;;;;5052706;28;20124;-72
2023/10/17 07:08:50;;;;;;;10.88;4.70;;;7.20;99.90;;;;;;5040334;28;20064;-73
2023/10/17 07:16:34;;;;;;;7.65;4.88;;;7.40;99.90;;;;;;5058893;28;20044;-73
2023/10/17 07:22:08;;;;;;;8.25;4.60;;;7.40;99.90;;;;;;5070467;28;20078;-72
2023/10/17 07:24:35;;;;;;;9.55;5.43;;;7.50;99.90;;;;;;5066371;28;20047;-73
2023/10/17 07:27:18;;;;;;;10.70;5.47;;;7.50;99.90;;;;;;5071507;28;20033;-72
2023/10/17 07:29:45;;;;;;;12.23;5.70;;;7.60;99.90;;;;;;5041701;28;20041;-72
2023/10/17 07:32:17;;;;;;;9.00;4.93;;;7.70;99.90;;;;;;5068209;28;20488;-72
2023/10/17 07:34:45;;;;;;;10.23;5.60;;;7.70;99.90;;;;;;5067724;28;20052;-72
2023/10/17 07:39:37;;;;;;;11.05;5.50;;;7.80;99.90;;;;;;5069121;28;20040;-72
2023/10/17 07:42:04;;;;;;;8.93;4.97;;;7.80;99.90;;;;;;5064308;28;20032;-73
2023/10/17 07:44:34;;;;;;;8.82;5.07;;;7.90;99.90;;;;;;5077762;28;20121;-72
2023/10/17 07:49:36;;;;;;;10.63;5.22;;;8.00;99.90;;;;;;5067158;28;20127;-72
2023/10/17 07:52:15;;;;;;;12.32;6.35;;;8.00;99.90;;;;;;5063488;28;20071;-72
2023/10/17 07:54:57;;;;;;;10.23;5.57;;;8.10;99.90;;;;;;5060940;28;20591;-72
2023/10/17 07:57:27;;;;;;;;;;;8.10;99.90;;;;;;5054222;28;20053;-72
2023/10/17 07:59:57;;;;;;;9.25;4.68;;;8.20;99.90;;;;;;5066934;28;19960;-72
2023/10/17 08:02:23;;;;;;;10.35;5.55;;;8.30;99.90;;;;;;5059416;28;20041;-72
2023/10/17 08:04:53;;;;;;;9.13;4.93;;;8.40;99.90;;;;;;5071128;28;20063;-72
2023/10/17 08:07:22;;;;;;;12.32;5.45;;;8.40;99.90;;;;;;5053316;28;20055;-73
2023/10/17 08:09:56;;;;;;;8.60;4.80;;;8.50;99.90;;;;;;5068757;28;20028;-72
2023/10/17 08:12:22;;;;;;;11.70;4.97;;;8.60;99.90;;;;;;5053044;28;20048;-72
2023/10/17 08:15:18;;;;;;;8.93;5.00;;;8.60;99.90;;;;;;5036976;28;20120;-72
2023/10/17 08:17:44;;;;;;;8.48;4.10;;;8.70;99.90;;;;;;5074017;28;20040;-72
2023/10/17 08:25:30;;;;;;;9.07;4.22;;;8.90;99.90;;;;;;5057617;28;20128;-72
2023/10/17 08:27:57;;;;;;;8.43;4.05;;;8.90;99.90;;;;;;5074139;28;20052;-72
2023/10/17 08:30:23;;;;;;;9.50;3.53;;;9.00;99.90;;;;;;5073174;28;20087;-72
2023/10/17 08:33:09;;;;;;;9.32;3.42;;;9.00;99.90;;;;;;5073027;28;20511;-72
2023/10/17 08:35:51;;;;;;;11.30;3.78;;;9.00;99.90;;;;;;5070889;28;20044;-72
2023/10/17 08:38:17;;;;;;;9.23;3.65;;;9.10;99.90;;;;;;5073838;28;20072;-72
2023/10/17 08:40:43;;;;;;;7.90;3.22;;;9.30;99.90;;;;;;5056667;28;20399;-73
2023/10/17 08:43:11;;;;;;;8.35;3.15;;;9.40;99.90;;;;;;5069409;28;20044;-72
2023/10/17 08:45:39;;;;;;;9.82;3.47;;;9.40;99.90;;;;;;5074416;28;20046;-73
2023/10/17 08:48:08;;;;;;;5.50;3.28;;;9.50;99.90;;;;;;5056676;28;20598;-72
2023/10/17 08:50:37;;;;;;;7.05;3.28;;;9.50;99.90;;;;;;5055411;28;20048;-72
2023/10/17 08:53:07;;;;;;;9.32;3.50;;;9.60;99.90;;;;;;5072920;28;20033;-72
2023/10/17 08:55:33;;;;;;;8.02;3.35;;;9.80;99.90;;;;;;5055775;28;20059;-72
2023/10/17 08:57:59;;;;;;;7.63;2.70;;;9.80;99.90;;;;;;5065315;28;20059;-72
2023/10/17 09:03:33;;;;;;;6.88;2.90;;;9.90;99.90;;;;;;5037789;28;20084;-72
2023/10/17 09:08:52;;;;;;;5.37;2.37;;;10.10;99.90;;;;;;5072267;28;20080;-72
2023/10/17 09:11:30;;;;;;;6.93;2.60;;;10.20;99.90;;;;;;5053559;28;20696;-72
2023/10/17 09:14:24;;;;;;;6.93;2.63;;;10.30;99.90;;;;;;5037169;28;20051;-72
2023/10/17 09:17:16;;;;;;;5.60;2.28;;;10.30;99.90;;;;;;5063694;28;20044;-72
2023/10/17 09:19:50;;;;;;;5.93;2.20;;;10.30;99.90;;;;;;5068852;28;20120;-72
2023/10/17 09:22:36;;;;;;;5.15;2.40;;;10.30;99.90;;;;;;5053674;28;20493;-72
2023/10/17 09:25:26;;;;;;;4.65;2.10;;;10.60;99.90;;;;;;5055788;28;20043;-72
2023/10/17 09:27:56;;;;;;;8.30;2.35;;;10.70;99.90;;;;;;5059483;28;20041;-72
2023/10/17 09:30:23;;;;;;;5.75;2.20;;;11.00;99.90;;;;;;5071092;28;20045;-72
2023/10/17 09:32:49;;;;;;;5.25;2.25;;;10.90;99.90;;;;;;5063715;28;20047;-72
2023/10/17 09:35:15;;;;;;;8.38;2.30;;;10.90;99.90;;;;;;5070256;28;20032;-72
2023/10/17 09:37:42;;;;;;;5.43;1.70;;;11.00;99.90;;;;;;5072775;28;20044;-72
2023/10/17 09:40:12;;;;;;;8.20;1.90;;;11.20;99.90;;;;;;5071806;28;20511;-72
2023/10/17 09:42:40;;;;;;;4.05;1.52;;;11.20;99.90;;;;;;5071625;28;20040;-72
2023/10/17 09:45:09;;;;;;;4.55;1.90;;;11.10;99.90;;;;;;5045598;28;20083;-72
2023/10/17 09:47:39;;;;;;;6.07;1.95;;;11.00;99.90;;;;;;5068792;28;20036;-72
2023/10/17 09:50:08;;;;;;;4.95;1.42;;;11.20;99.90;;;;;;5070053;28;20045;-72
2023/10/17 09:52:34;;;;;;;4.47;1.65;;;11.20;99.90;;;;;;5057426;28;20130;-73
2023/10/17 09:55:04;;;;;;;2.65;1.00;;;11.30;99.90;;;;;;5067586;28;20045;-72
2023/10/17 09:57:37;;;;;;;4.30;1.55;;;11.50;99.90;;;;;;5055914;28;20443;-72
2023/10/17 10:00:27;;;;;;;6.13;1.77;;;11.40;99.90;;;;;;5072468;28;20127;-72
2023/10/17 10:02:54;;;;;;;6.60;1.35;;;11.40;99.90;;;;;;5056163;28;20040;-72
2023/10/17 10:05:21;;;;;;;5.05;1.63;;;11.70;99.90;;;;;;5069195;28;20033;-72
2023/10/17 10:07:47;;;;;;;5.18;1.58;;;11.60;99.90;;;;;;5055572;28;20040;-72
2023/10/17 10:10:48;;;;;;;3.60;1.35;;;11.50;99.90;;;;;;5078061;28;20040;-72
2023/10/17 10:13:14;;;;;;;3.95;1.50;;;11.50;99.90;;;;;;5081608;28;20040;-71
2023/10/17 10:16:01;;;;;;;3.63;1.33;;;11.50;99.90;;;;;;5052787;28;20056;-71
2023/10/17 10:18:35;;;;;;;3.63;1.23;;;11.40;99.90;;;;;;5052246;28;20052;-72
2023/10/17 10:21:07;;;;;;;4.90;1.35;;;11.50;99.90;;;;;;5053433;28;20174;-71
2023/10/17 10:23:40;;;;;;;4.38;1.27;;;11.50;99.90;;;;;;5055091;28;20040;-72
2023/10/17 10:26:11;;;;;;;1.98;1.00;;;11.40;99.90;;;;;;5062296;28;20039;-72
2023/10/17 10:28:38;;;;;;;3.45;1.20;;;11.40;99.90;;;;;;5064834;28;20048;-71
2023/10/17 10:31:22;;;;;;;5.07;1.45;;;11.30;99.90;;;;;;5054651;28;20405;-72
2023/10/17 10:34:00;;;;;;;2.15;0.85;;;11.40;99.90;;;;;;5072242;28;20052;-72
2023/10/17 10:36:26;;;;;;;5.13;1.30;;;11.40;99.90;;;;;;5053199;28;20045;-72
2023/10/17 10:38:57;;;;;;;5.50;1.70;;;11.50;99.90;;;;;;5070647;28;20042;-72
2023/10/17 10:41:23;;;;;;;3.83;1.27;;;11.40;99.90;;;;;;5051504;28;20040;-72
2023/10/17 10:43:57;;;;;;;3.65;1.05;;;11.40;99.90;;;;;;5053887;28;20051;-72
2023/10/17 10:46:22;;;;;;;2.35;0.90;;;11.50;99.90;;;;;;5060563;28;20043;-71
2023/10/17 10:48:53;;;;;;;2.97;0.93;;;11.70;99.90;;;;;;5070931;28;20119;-72
2023/10/17 10:51:21;;;;;;;4.28;1.13;;;11.70;99.90;;;;;;5072100;28;20049;-72
2023/10/17 10:53:54;;;;;;;5.47;1.30;;;11.70;99.90;;;;;;5052528;28;20397;-72
2023/10/17 10:56:22;;;;;;;4.30;1.30;;;11.70;99.90;;;;;;5049535;28;20049;-72
2023/10/17 10:58:55;;;;;;;1.08;0.50;;;11.60;99.90;;;;;;5051495;28;20119;-72
2023/10/17 11:01:25;;;;;;;3.17;1.00;;;11.80;99.90;;;;;;5051871;28;20043;-72
2023/10/17 11:03:51;;;;;;;2.88;1.00;;;11.70;99.90;;;;;;5070265;28;20044;-72
2023/10/17 11:06:25;;;;;;;2.60;0.85;;;11.70;99.90;;;;;;5073764;28;20446;-72
2023/10/17 11:08:52;;;;;;;3.80;1.33;;;11.70;99.90;;;;;;5070506;28;20122;-72
2023/10/17 11:11:19;;;;;;;5.72;1.30;;;11.60;99.90;;;;;;5067787;28;20040;-71
2023/10/17 11:13:46;;;;;;;3.72;2.05;;;11.40;99.90;;;;;;5057872;28;20043;-72
2023/10/17 11:16:16;;;;;;;7.63;1.67;;;11.30;99.90;;;;;;5050195;28;20055;-72
2023/10/17 11:18:43;;;;;;;3.30;1.10;;;11.40;99.90;;;;;;5069537;28;20059;-72
2023/10/17 11:21:09;;;;;;;4.35;1.33;;;11.40;99.90;;;;;;5054572;28;20037;-72
2023/10/17 11:23:46;;;;;;;4.43;1.45;;;11.50;99.90;;;;;;5054394;28;20492;-72
2023/10/17 11:26:12;;;;;;;3.22;1.10;;;11.40;99.90;;;;;;5068572;28;20041;-72
2023/10/17 11:28:42;;;;;;;4.80;1.30;;;11.40;99.90;;;;;;5086022;28;20516;-72
2023/10/17 11:31:24;;;;;;;3.88;1.02;;;11.40;99.90;;;;;;5069223;28;20041;-72
2023/10/17 11:34:04;;;;;;;4.93;1.10;;;11.50;99.90;;;;;;5051947;28;20045;-71
2023/10/17 11:36:37;;;;;;;1.65;1.00;;;11.40;99.90;;;;;;5063838;28;20036;-72
2023/10/17 11:39:08;;;;;;;6.28;1.52;;;11.60;99.90;;;;;;5070024;28;20489;-72
2023/10/17 11:41:48;;;;;;;3.75;1.20;;;11.60;99.90;;;;;;5053868;28;20028;-72
2023/10/17 11:44:15;;;;;;;5.13;1.20;;;11.50;99.90;;;;;;5045469;28;20044;-72
2023/10/17 11:46:55;;;;;;;4.50;1.10;;;11.50;99.90;;;;;;5048987;28;20041;-72
2023/10/17 11:49:28;;;;;;;3.72;1.35;;;11.50;99.90;;;;;;5053402;28;20412;-72
2023/10/17 11:52:00;;;;;;;2.78;1.42;;;11.50;99.90;;;;;;5050355;28;20044;-72
2023/10/17 11:54:27;;;;;;;3.15;1.40;;;11.60;99.90;;;;;;5056739;28;20040;-72
2023/10/17 11:56:54;;;;;;;3.42;2.00;;;11.40;99.90;;;;;;5054024;28;20057;-72
2023/10/17 11:59:20;;;;;;;2.80;1.33;;;11.50;99.90;;;;;;5067085;28;20044;-72
2023/10/17 12:01:47;;;;;;;5.40;1.88;;;11.50;99.90;;;;;;5058699;28;20481;-72
2023/10/17 12:04:16;;;;;;;4.55;1.50;;;11.50;99.90;;;;;;5071921;28;20111;-73
2023/10/17 12:06:51;;;;;;;3.90;1.40;;;11.60;99.90;;;;;;5068296;28;20116;-72
2023/10/17 12:09:22;;;;;;;4.80;1.40;;;11.60;99.90;;;;;;5056897;28;20071;-72
2023/10/17 12:11:54;;;;;;;3.28;1.48;;;11.40;99.90;;;;;;5074599;28;20047;-72
2023/10/17 12:14:21;;;;;;;4.75;1.42;;;11.40;99.90;;;;;;5054501;28;20378;-73
2023/10/17 12:16:48;;;;;;;4.57;1.50;;;11.40;99.90;;;;;;5079260;28;20436;-72
2023/10/17 12:19:16;;;;;;;4.10;1.45;;;11.50;99.90;;;;;;5070921;28;20033;-72
2023/10/17 12:21:49;;;;;;;6.28;1.70;;;11.60;99.90;;;;;;5043601;28;20443;-72
2023/10/17 12:24:27;;;;;;;4.47;1.70;;;11.70;99.90;;;;;;5073375;28;20040;-72
2023/10/17 12:26:53;;;;;;;4.85;1.50;;;11.50;99.90;;;;;;5073767;28;20062;-72
2023/10/17 12:29:19;;;;;;;3.90;1.60;;;11.60;99.90;;;;;;5066091;28;20436;-72
2023/10/17 12:31:45;;;;;;;7.50;2.10;;;11.50;99.90;;;;;;5057821;28;20051;-72
2023/10/17 12:34:15;;;;;;;5.78;2.03;;;11.60;99.90;;;;;;5053622;28;20094;-72
2023/10/17 12:36:41;;;;;;;5.75;1.90;;;11.50;99.90;;;;;;5083889;28;20132;-72
2023/10/17 12:39:07;;;;;;;5.53;1.70;;;11.40;99.90;;;;;;5064168;28;20068;-72
2023/10/17 12:41:35;;;;;;;5.40;1.77;;;11.40;99.90;;;;;;5056540;28;20032;-72
2023/10/17 12:44:00;;;;;;;5.97;1.98;;;11.70;99.90;;;;;;5071861;28;20036;-72
2023/10/17 12:46:26;;;;;;;4.82;1.50;;;11.70;99.90;;;;;;5073555;28;20455;-72
2023/10/17 12:48:53;;;;;;;4.15;1.50;;;11.60;99.90;;;;;;5056730;28;20049;-72
2023/10/17 12:51:20;;;;;;;3.58;1.80;;;11.60;99.90;;;;;;5045969;28;20484;-73
2023/10/17 12:53:47;;;;;;;4.85;1.70;;;11.50;99.90;;;;;;5057199;28;20047;-72
2023/10/17 12:56:12;;;;;;;4.63;2.20;;;11.40;99.90;;;;;;5054295;28;20130;-72
2023/10/17 12:58:38;;;;;;;4.07;1.65;;;11.50;99.90;;;;;;5064419;28;20071;-72
2023/10/17 13:01:04;;;;;;;2.53;1.67;;;11.60;99.90;;;;;;5045087;28;20133;-73
2023/10/17 13:03:36;;;;;;;4.57;1.80;;;11.60;99.90;;;;;;5052571;28;20170;-73
2023/10/17 13:06:02;;;;;;;3.42;1.40;;;11.50;99.90;;;;;;5068281;28;20048;-73
2023/10/17 13:08:28;;;;;;;2.90;1.50;;;11.50;99.90;;;;;;5055918;28;20039;-73
2023/10/17 13:10:55;;;;;;;5.82;1.48;;;11.50;99.90;;;;;;5056024;28;20044;-72
2023/10/17 13:13:21;;;;;;;4.93;2.35;;;11.60;99.90;;;;;;5045837;28;20048;-72
2023/10/17 13:15:48;;;;;;;3.22;1.15;;;11.50;99.90;;;;;;5060908;28;20040;-73
2023/10/17 13:18:14;;;;;;;5.47;1.30;;;11.50;99.90;;;;;;5056654;28;20553;-73
2023/10/17 13:20:48;;;;;;;3.60;1.20;;;11.60;99.90;;;;;;5053723;28;20032;-73
2023/10/17 13:23:17;;;;;;;5.80;1.30;;;11.60;99.90;;;;;;5072523;28;20036;-73
2023/10/17 13:25:43;;;;;;;3.67;1.52;;;11.60;99.90;;;;;;5083423;28;20496;-73
2023/10/17 13:28:10;;;;;;;7.38;1.40;;;11.60;99.90;;;;;;5073318;28;20480;-73
2023/10/17 13:30:36;;;;;;;2.60;1.20;;;11.60;99.90;;;;;;5053866;28;20048;-73
2023/10/17 13:33:02;;;;;;;3.90;1.30;;;11.50;99.90;;;;;;5068913;28;20110;-73
2023/10/17 13:35:28;;;;;;;3.20;1.30;;;11.50;99.90;;;;;;5056157;28;20040;-73
2023/10/17 13:37:55;;;;;;;2.53;1.30;;;11.50;99.90;;;;;;5073142;28;20397;-73
2023/10/17 13:40:23;;;;;;;3.65;1.10;;;11.50;99.90;;;;;;5056374;28;20086;-72
2023/10/17 13:42:53;;;;;;;2.78;0.98;;;11.50;99.90;;;;;;5048454;28;20037;-73
2023/10/17 13:45:22;;;;;;;2.45;1.10;;;11.50;99.90;;;;;;5064271;28;20174;-73
2023/10/17 13:47:49;;;;;;;6.25;1.23;;;11.50;99.90;;;;;;5055732;28;20048;-73
2023/10/17 13:50:18;;;;;;;3.08;1.30;;;11.50;99.90;;;;;;5054827;28;20493;-73
2023/10/17 13:52:48;;;;;;;2.75;1.00;;;11.50;99.90;;;;;;5069185;28;20043;-73
2023/10/17 13:55:17;;;;;;;6.22;1.13;;;11.50;99.90;;;;;;5063735;28;20063;-73
2023/10/17 13:57:43;;;;;;;4.32;1.08;;;11.50;99.90;;;;;;5071947;28;20045;-73
2023/10/17 14:00:18;;;;;;;2.42;0.77;;;11.50;99.90;;;;;;5055096;28;20063;-73
2023/10/17 14:02:45;;;;;;;2.13;0.85;;;11.50;99.90;;;;;;5061834;28;20079;-73
2023/10/17 14:05:12;;;;;;;3.20;1.00;;;11.50;99.90;;;;;;5067953;28;20041;-73
2023/10/17 14:07:38;;;;;;;2.70;0.90;;;11.50;99.90;;;;;;5052949;28;20029;-73
2023/10/17 14:10:09;;;;;;;2.88;1.10;;;11.50;99.90;;;;;;5056192;28;20509;-73
2023/10/17 14:12:39;;;;;;;4.45;1.10;;;11.50;99.90;;;;;;5064103;28;20385;-73
2023/10/17 14:15:09;;;;;;;2.53;0.90;;;11.40;99.90;;;;;;5054830;28;20392;-73
2023/10/17 14:17:36;;;;;;;2.75;0.80;;;11.50;99.90;;;;;;5071701;28;20040;-73
2023/10/17 14:20:16;;;;;;;2.83;1.00;;;11.50;99.90;;;;;;5068935;28;20569;-73
2023/10/17 14:22:56;;;;;;;5.45;1.30;;;11.40;99.90;;;;;;5065537;28;20075;-74
2023/10/17 14:26:00;;;;;;;5.30;1.23;;;11.40;99.90;;;;;;5064487;28;20032;-74
2023/10/17 14:28:08;;;;;;;11.73;1.50;;;11.40;99.90;;;;;;5052704;28;20056;-72
2023/10/17 14:30:37;;;;;;;3.88;0.90;;;11.40;99.90;;;;;;5067797;28;20045;-72
2023/10/17 14:33:03;;;;;;;2.33;1.00;;;11.50;99.90;;;;;;5085102;28;20405;-74
2023/10/17 14:35:33;;;;;;;7.57;1.25;;;11.40;99.90;;;;;;5052874;28;20036;-73
2023/10/17 14:38:00;;;;;;;3.28;0.82;;;11.40;99.90;;;;;;5054851;28;20049;-73
2023/10/17 14:40:29;;;;;;;3.53;0.95;;;11.40;99.90;;;;;;5053426;28;20116;-73
2023/10/17 14:42:55;;;;;;;3.03;0.90;;;11.30;99.90;;;;;;5070500;28;20036;-73
2023/10/17 14:45:24;;;;;;;1.73;0.70;;;11.40;99.90;;;;;;5068685;28;20128;-74
2023/10/17 14:47:50;;;;;;;1.95;0.95;;;11.30;99.90;;;;;;5071042;28;20040;-72
2023/10/17 14:50:15;;;;;;;3.08;0.70;;;11.30;99.90;;;;;;5042540;28;20074;-75
2023/10/17 14:52:41;;;;;;;3.75;1.42;;;11.30;99.90;;;;;;5067947;28;20121;-73
2023/10/17 14:55:14;;;;;;;3.35;1.00;;;11.20;99.90;;;;;;5053968;28;20143;-72
2023/10/17 14:57:49;;;;;;;4.20;1.10;;;11.20;99.90;;;;;;5055248;28;20048;-73
2023/10/17 15:00:15;;;;;;;3.17;0.80;;;11.20;99.90;;;;;;5071507;28;20029;-73
2023/10/17 15:02:44;;;;;;;2.90;1.00;;;11.10;99.90;;;;;;5071534;28;20079;-73
2023/10/17 15:05:13;;;;;;;4.00;1.08;;;11.20;99.90;;;;;;5070544;28;20074;-72
2023/10/17 15:07:40;;;;;;;4.78;1.25;;;11.10;99.90;;;;;;5054415;28;20511;-73
2023/10/17 15:10:13;;;;;;;3.85;0.77;;;11.10;99.90;;;;;;5054750;28;20047;-73
2023/10/17 15:12:45;;;;;;;7.55;1.20;;;11.00;99.90;;;;;;5051985;28;20036;-73
2023/10/17 15:15:11;;;;;;;5.72;1.25;;;11.00;99.90;;;;;;5070490;28;20515;-72
2023/10/17 15:17:44;;;;;;;2.42;0.70;;;11.00;99.90;;;;;;5051631;28;20029;-72